Chatham Township, NJ

1:01 PM EST on December 20, 2014 (GMT -0500)
NJWxNet CHATHAM TWP. - NJ SAFETYNET | Change Station
CLOSE
Current Station
Personal Weather Station
Location: Chatham Township, NJ
Elevation: 354 ft
Nearby Weather Stations

Elev 354 ft 40.73 °N, 74.40 °W | Updated 143 days ago

Partly Cloudy
Partly Cloudy
34 °F
Feels Like 34 °F
N
2
Wind Variable Wind from North
Gusts 3 mph

Today
High -- | Low -- °F
--% Chance of Precip.
Yesterday
High -- | Low -- °F
Precip. -- in
7:17 AM 4:32 PM
Waning Crescent, 2% visible
Pressure 30.26 in
Visibility 10.0 miles
Clouds Overcast 3000 ft
Dew Point 19 °F
Humidity 52%
Rainfall -999.00 in
Snow Depth Not available.
UV 1 out of 12
Pollen .10 out of 12
Air Quality Not available.
Flu Activity Not available.
METAR KMMU 201745Z 03007KT 10SM OVC030 00/M05 A3026

More Conditions Fewer Conditions

Pressure 30.26 in
Visibility 10.0 miles
Clouds Overcast 3000 ft
Dew Point 19 °F
Humidity 52%
Rainfall -999.00 in
Snow Depth Not available.
UV 1 out of 12
Pollen .10 out of 12
Air Quality Not available.
Flu Activity Not available.
METAR KMMU 201745Z 03007KT 10SM OVC030 00/M05 A3026

More Conditions Fewer Conditions

10-Day Weather Forecast

Almanac

Astronomy

Dec. 20, 2014 Rise Set
Actual Time
Civil Twilight
Nautical Twilight
Astronomical Twilight
Moon
Length of Visible Light
Length of Day
Tomorrow will be .
, % of the Moon is Illuminated

Today's Extremes

State Highs State Lows

Community

WunderPhotos

Upload Photos

1,779,231 photos uploaded!

WunderBlogs® & News

Nearby

Air Quality

  Air Quality AQ Index Pollutant
Not available.

Snow Depth

Station Depth Elevation

Earthquake Activity

City Distance Mag. Time & Date
Minimum magnitude displayed is 2.5.

Coastal Water Temperatures

Place Temperature

Nearby Weather Stations